sensor_id;sensor_type;location;lat;lon;timestamp;pressure;altitude;pressure_sealevel;temperature;humidity
49515;BME280;35415;47.870;16.058;2024-01-27T00:00:42;98146.91;;;6.40;65.78
49515;BME280;35415;47.870;16.058;2024-01-27T00:03:09;98162.75;;;6.35;68.47
49515;BME280;35415;47.870;16.058;2024-01-27T00:05:37;98152.50;;;6.32;69.93
49515;BME280;35415;47.870;16.058;2024-01-27T00:08:06;98155.28;;;5.94;70.58
49515;BME280;35415;47.870;16.058;2024-01-27T00:10:34;98170.72;;;6.17;70.56
49515;BME280;35415;47.870;16.058;2024-01-27T00:13:02;98170.28;;;6.20;70.45
49515;BME280;35415;47.870;16.058;2024-01-27T00:15:29;98195.78;;;6.16;70.17
49515;BME280;35415;47.870;16.058;2024-01-27T00:17:57;98163.34;;;6.12;69.65
49515;BME280;35415;47.870;16.058;2024-01-27T00:20:24;98160.69;;;6.12;69.98
49515;BME280;35415;47.870;16.058;2024-01-27T00:22:52;98220.47;;;6.11;68.59
49515;BME280;35415;47.870;16.058;2024-01-27T00:25:21;98150.97;;;5.86;67.60
49515;BME280;35415;47.870;16.058;2024-01-27T00:27:49;98169.38;;;6.01;67.16
49515;BME280;35415;47.870;16.058;2024-01-27T00:30:16;98113.56;;;5.61;66.14
49515;BME280;35415;47.870;16.058;2024-01-27T00:32:43;98210.63;;;6.12;65.81
49515;BME280;35415;47.870;16.058;2024-01-27T00:35:11;98201.03;;;5.97;63.65
49515;BME280;35415;47.870;16.058;2024-01-27T00:37:40;98091.81;;;5.58;63.88
49515;BME280;35415;47.870;16.058;2024-01-27T00:40:09;98269.09;;;6.20;63.23
49515;BME280;35415;47.870;16.058;2024-01-27T00:42:38;98149.53;;;5.90;62.94
49515;BME280;35415;47.870;16.058;2024-01-27T00:45:06;98202.59;;;6.12;62.33
49515;BME280;35415;47.870;16.058;2024-01-27T00:47:34;98171.66;;;5.97;62.31
49515;BME280;35415;47.870;16.058;2024-01-27T00:50:01;98253.31;;;6.18;62.02
49515;BME280;35415;47.870;16.058;2024-01-27T00:52:29;98234.38;;;6.20;59.74
49515;BME280;35415;47.870;16.058;2024-01-27T00:54:57;98230.50;;;6.22;59.25
49515;BME280;35415;47.870;16.058;2024-01-27T00:57:24;98193.28;;;6.21;59.74
49515;BME280;35415;47.870;16.058;2024-01-27T00:59:53;98213.00;;;6.20;60.35
49515;BME280;35415;47.870;16.058;2024-01-27T01:02:21;98199.66;;;6.20;59.59
49515;BME280;35415;47.870;16.058;2024-01-27T01:04:48;98170.34;;;6.13;59.49
49515;BME280;35415;47.870;16.058;2024-01-27T01:07:15;98128.91;;;5.72;59.94
49515;BME280;35415;47.870;16.058;2024-01-27T01:09:43;98219.97;;;6.27;59.23
49515;BME280;35415;47.870;16.058;2024-01-27T01:12:11;98213.63;;;6.22;59.37
49515;BME280;35415;47.870;16.058;2024-01-27T01:14:38;98169.22;;;5.96;60.11
49515;BME280;35415;47.870;16.058;2024-01-27T01:17:07;98213.38;;;5.98;60.13
49515;BME280;35415;47.870;16.058;2024-01-27T01:19:36;98148.41;;;5.66;59.44
49515;BME280;35415;47.870;16.058;2024-01-27T01:22:04;98246.91;;;6.19;59.58
49515;BME280;35415;47.870;16.058;2024-01-27T01:24:32;98223.09;;;6.18;59.85
49515;BME280;35415;47.870;16.058;2024-01-27T01:27:00;98254.53;;;6.22;60.16
49515;BME280;35415;47.870;16.058;2024-01-27T01:29:27;98247.13;;;6.24;59.02
49515;BME280;35415;47.870;16.058;2024-01-27T01:31:55;98194.13;;;5.90;58.57
49515;BME280;35415;47.870;16.058;2024-01-27T01:34:24;98188.78;;;5.83;58.75
49515;BME280;35415;47.870;16.058;2024-01-27T01:36:51;98229.97;;;6.07;58.56
49515;BME280;35415;47.870;16.058;2024-01-27T01:39:20;98231.72;;;6.20;57.99
49515;BME280;35415;47.870;16.058;2024-01-27T01:41:47;98230.91;;;6.19;58.18
49515;BME280;35415;47.870;16.058;2024-01-27T01:44:15;98196.16;;;6.19;58.37
49515;BME280;35415;47.870;16.058;2024-01-27T01:46:42;98209.19;;;6.09;57.74
49515;BME280;35415;47.870;16.058;2024-01-27T01:49:10;98231.38;;;6.10;57.79
49515;BME280;35415;47.870;16.058;2024-01-27T01:51:39;98255.59;;;6.15;58.15
49515;BME280;35415;47.870;16.058;2024-01-27T01:54:08;98231.97;;;6.12;57.71
49515;BME280;35415;47.870;16.058;2024-01-27T01:56:36;98212.63;;;6.16;57.55
49515;BME280;35415;47.870;16.058;2024-01-27T01:59:04;98205.94;;;6.07;58.08
49515;BME280;35415;47.870;16.058;2024-01-27T02:01:32;98217.06;;;5.97;58.07
49515;BME280;35415;47.870;16.058;2024-01-27T02:03:59;98215.97;;;6.12;58.85
49515;BME280;35415;47.870;16.058;2024-01-27T02:06:27;98233.22;;;6.09;58.70
49515;BME280;35415;47.870;16.058;2024-01-27T02:08:56;98256.75;;;5.81;59.03
49515;BME280;35415;47.870;16.058;2024-01-27T02:11:23;98216.63;;;6.00;58.91
49515;BME280;35415;47.870;16.058;2024-01-27T02:13:51;98274.34;;;6.08;58.32
49515;BME280;35415;47.870;16.058;2024-01-27T02:16:19;98260.38;;;6.06;58.07
49515;BME280;35415;47.870;16.058;2024-01-27T02:18:47;98266.59;;;5.93;58.10
49515;BME280;35415;47.870;16.058;2024-01-27T02:21:15;98292.84;;;6.03;58.27
49515;BME280;35415;47.870;16.058;2024-01-27T02:23:42;98273.56;;;5.94;58.03
49515;BME280;35415;47.870;16.058;2024-01-27T02:26:12;98283.81;;;5.97;58.26
49515;BME280;35415;47.870;16.058;2024-01-27T02:28:41;98212.91;;;5.63;58.19
49515;BME280;35415;47.870;16.058;2024-01-27T02:31:08;98261.69;;;5.90;57.65
49515;BME280;35415;47.870;16.058;2024-01-27T02:33:36;98217.22;;;5.64;58.16
49515;BME280;35415;47.870;16.058;2024-01-27T02:36:04;98290.63;;;5.93;57.24
49515;BME280;35415;47.870;16.058;2024-01-27T02:38:31;98277.50;;;5.92;57.58
49515;BME280;35415;47.870;16.058;2024-01-27T02:40:59;98291.72;;;5.72;57.74
49515;BME280;35415;47.870;16.058;2024-01-27T02:43:28;98273.66;;;5.74;56.84
49515;BME280;35415;47.870;16.058;2024-01-27T02:45:55;98302.97;;;5.81;57.26
49515;BME280;35415;47.870;16.058;2024-01-27T02:48:23;98278.78;;;5.76;57.56
49515;BME280;35415;47.870;16.058;2024-01-27T02:50:50;98272.78;;;5.81;57.17
49515;BME280;35415;47.870;16.058;2024-01-27T02:53:18;98270.38;;;5.72;56.78
49515;BME280;35415;47.870;16.058;2024-01-27T02:55:45;98270.72;;;5.83;56.42
49515;BME280;35415;47.870;16.058;2024-01-27T02:58:13;98291.47;;;5.81;56.42
49515;BME280;35415;47.870;16.058;2024-01-27T03:00:42;98230.59;;;5.51;55.92
49515;BME280;35415;47.870;16.058;2024-01-27T03:03:09;98240.69;;;5.49;55.92
49515;BME280;35415;47.870;16.058;2024-01-27T03:05:37;98221.03;;;5.30;56.45
49515;BME280;35415;47.870;16.058;2024-01-27T03:08:05;98312.25;;;5.72;57.18
49515;BME280;35415;47.870;16.058;2024-01-27T03:10:33;98295.81;;;5.75;56.71
49515;BME280;35415;47.870;16.058;2024-01-27T03:13:00;98292.75;;;5.71;56.54
49515;BME280;35415;47.870;16.058;2024-01-27T03:15:28;98294.41;;;5.72;56.66
49515;BME280;35415;47.870;16.058;2024-01-27T03:17:57;98248.94;;;5.34;57.34
49515;BME280;35415;47.870;16.058;2024-01-27T03:20:25;98234.81;;;5.27;57.16
49515;BME280;35415;47.870;16.058;2024-01-27T03:22:53;98295.03;;;5.61;56.68
49515;BME280;35415;47.870;16.058;2024-01-27T03:25:21;98299.78;;;5.59;57.21
49515;BME280;35415;47.870;16.058;2024-01-27T03:27:51;98244.66;;;5.27;57.29
49515;BME280;35415;47.870;16.058;2024-01-27T03:30:18;98257.38;;;5.25;56.98
49515;BME280;35415;47.870;16.058;2024-01-27T03:32:46;98322.13;;;5.65;57.26
49515;BME280;35415;47.870;16.058;2024-01-27T03:35:15;98290.41;;;5.24;56.71
49515;BME280;35415;47.870;16.058;2024-01-27T03:37:43;98324.00;;;5.58;56.43
49515;BME280;35415;47.870;16.058;2024-01-27T03:40:12;98309.03;;;5.57;56.41
49515;BME280;35415;47.870;16.058;2024-01-27T03:42:39;98341.25;;;5.55;56.63
49515;BME280;35415;47.870;16.058;2024-01-27T03:45:07;98342.66;;;5.64;56.01
49515;BME280;35415;47.870;16.058;2024-01-27T03:47:35;98338.13;;;5.65;55.88
49515;BME280;35415;47.870;16.058;2024-01-27T03:50:03;98314.81;;;5.27;55.89
49515;BME280;35415;47.870;16.058;2024-01-27T03:52:32;98282.59;;;5.29;55.68
49515;BME280;35415;47.870;16.058;2024-01-27T03:54:59;98382.28;;;5.61;55.54
49515;BME280;35415;47.870;16.058;2024-01-27T03:57:27;98372.22;;;5.63;55.64
49515;BME280;35415;47.870;16.058;2024-01-27T03:59:54;98266.44;;;4.97;55.49
49515;BME280;35415;47.870;16.058;2024-01-27T04:02:22;98368.34;;;5.59;55.56
49515;BME280;35415;47.870;16.058;2024-01-27T04:04:49;98363.63;;;5.61;55.49
49515;BME280;35415;47.870;16.058;2024-01-27T04:07:17;98321.19;;;5.20;55.86
49515;BME280;35415;47.870;16.058;2024-01-27T04:09:46;98371.22;;;5.57;55.84
49515;BME280;35415;47.870;16.058;2024-01-27T04:12:14;98368.53;;;5.51;56.22
49515;BME280;35415;47.870;16.058;2024-01-27T04:14:41;98303.78;;;5.04;55.74
49515;BME280;35415;47.870;16.058;2024-01-27T04:17:09;98360.56;;;5.44;56.52
49515;BME280;35415;47.870;16.058;2024-01-27T04:19:37;98311.34;;;5.13;56.42
49515;BME280;35415;47.870;16.058;2024-01-27T04:22:04;98328.78;;;5.23;55.90
49515;BME280;35415;47.870;16.058;2024-01-27T04:24:32;98382.53;;;5.46;55.85
49515;BME280;35415;47.870;16.058;2024-01-27T04:27:01;98344.59;;;5.24;55.82
49515;BME280;35415;47.870;16.058;2024-01-27T04:29:29;98373.47;;;5.54;56.22
49515;BME280;35415;47.870;16.058;2024-01-27T04:31:56;98273.03;;;4.95;55.63
49515;BME280;35415;47.870;16.058;2024-01-27T04:34:24;98386.22;;;5.58;55.40
49515;BME280;35415;47.870;16.058;2024-01-27T04:36:51;98387.63;;;5.54;55.83
49515;BME280;35415;47.870;16.058;2024-01-27T04:39:19;98391.75;;;5.50;55.75
49515;BME280;35415;47.870;16.058;2024-01-27T04:41:46;98330.44;;;5.10;55.31
49515;BME280;35415;47.870;16.058;2024-01-27T04:44:15;98383.94;;;5.49;55.26
49515;BME280;35415;47.870;16.058;2024-01-27T04:46:46;98402.63;;;5.49;55.13
49515;BME280;35415;47.870;16.058;2024-01-27T04:49:14;98408.56;;;5.51;54.99
49515;BME280;35415;47.870;16.058;2024-01-27T04:51:42;98408.38;;;5.52;54.36
49515;BME280;35415;47.870;16.058;2024-01-27T04:54:10;98390.94;;;5.50;54.24
49515;BME280;35415;47.870;16.058;2024-01-27T04:56:37;98298.44;;;4.97;54.76
49515;BME280;35415;47.870;16.058;2024-01-27T04:59:04;98348.06;;;5.18;54.41
49515;BME280;35415;47.870;16.058;2024-01-27T05:01:33;98411.47;;;5.56;54.34
49515;BME280;35415;47.870;16.058;2024-01-27T05:04:01;98424.38;;;5.52;54.41
49515;BME280;35415;47.870;16.058;2024-01-27T05:06:28;98415.75;;;5.50;54.79
49515;BME280;35415;47.870;16.058;2024-01-27T05:08:56;98378.25;;;5.25;55.18
49515;BME280;35415;47.870;16.058;2024-01-27T05:11:30;98438.97;;;5.43;54.93
49515;BME280;35415;47.870;16.058;2024-01-27T05:13:58;98433.22;;;5.46;54.88
49515;BME280;35415;47.870;16.058;2024-01-27T05:16:26;98422.34;;;5.48;55.44
49515;BME280;35415;47.870;16.058;2024-01-27T05:18:55;98364.28;;;5.17;55.02
49515;BME280;35415;47.870;16.058;2024-01-27T05:21:23;98342.53;;;4.93;55.00
49515;BME280;35415;47.870;16.058;2024-01-27T05:23:50;98392.78;;;5.29;55.39
49515;BME280;35415;47.870;16.058;2024-01-27T05:26:17;98468.31;;;5.50;55.34
49515;BME280;35415;47.870;16.058;2024-01-27T05:28:45;98467.91;;;5.46;55.78
49515;BME280;35415;47.870;16.058;2024-01-27T05:31:12;98442.25;;;5.45;55.32
49515;BME280;35415;47.870;16.058;2024-01-27T05:33:40;98407.38;;;5.27;55.08
49515;BME280;35415;47.870;16.058;2024-01-27T05:36:09;98415.38;;;5.27;55.62
49515;BME280;35415;47.870;16.058;2024-01-27T05:38:37;98431.38;;;5.47;55.24
49515;BME280;35415;47.870;16.058;2024-01-27T05:41:04;98430.34;;;5.34;55.49
49515;BME280;35415;47.870;16.058;2024-01-27T05:43:32;98438.97;;;5.23;55.77
49515;BME280;35415;47.870;16.058;2024-01-27T05:45:59;98447.78;;;5.43;54.93
49515;BME280;35415;47.870;16.058;2024-01-27T05:48:27;98438.97;;;5.36;55.24
49515;BME280;35415;47.870;16.058;2024-01-27T05:50:55;98413.09;;;5.10;54.75
49515;BME280;35415;47.870;16.058;2024-01-27T05:53:25;98388.91;;;5.12;54.85
49515;BME280;35415;47.870;16.058;2024-01-27T05:55:55;98450.06;;;5.40;54.56
49515;BME280;35415;47.870;16.058;2024-01-27T05:58:23;98443.25;;;5.18;54.64
49515;BME280;35415;47.870;16.058;2024-01-27T06:00:51;98465.47;;;5.38;54.55
49515;BME280;35415;47.870;16.058;2024-01-27T06:03:19;98477.13;;;5.37;54.70
49515;BME280;35415;47.870;16.058;2024-01-27T06:05:46;98461.31;;;5.35;54.47
49515;BME280;35415;47.870;16.058;2024-01-27T06:08:14;98468.91;;;5.32;54.68
49515;BME280;35415;47.870;16.058;2024-01-27T06:10:45;98473.44;;;5.31;55.24
49515;BME280;35415;47.870;16.058;2024-01-27T06:13:12;98393.38;;;4.72;55.54
49515;BME280;35415;47.870;16.058;2024-01-27T06:15:40;98416.56;;;4.84;54.83
49515;BME280;35415;47.870;16.058;2024-01-27T06:18:07;98484.53;;;5.28;55.09
49515;BME280;35415;47.870;16.058;2024-01-27T06:20:35;98419.25;;;4.98;55.02
49515;BME280;35415;47.870;16.058;2024-01-27T06:23:03;98481.66;;;5.30;54.55
49515;BME280;35415;47.870;16.058;2024-01-27T06:25:30;98442.88;;;5.27;54.91
49515;BME280;35415;47.870;16.058;2024-01-27T06:27:59;98418.25;;;5.05;54.43
49515;BME280;35415;47.870;16.058;2024-01-27T06:30:27;98461.97;;;5.24;54.90
49515;BME280;35415;47.870;16.058;2024-01-27T06:32:55;98419.03;;;4.93;54.74
49515;BME280;35415;47.870;16.058;2024-01-27T06:35:22;98487.19;;;5.28;55.04
49515;BME280;35415;47.870;16.058;2024-01-27T06:37:50;98465.41;;;5.18;54.43
49515;BME280;35415;47.870;16.058;2024-01-27T06:40:17;98487.59;;;5.25;54.83
49515;BME280;35415;47.870;16.058;2024-01-27T06:42:45;98477.34;;;5.22;54.52
49515;BME280;35415;47.870;16.058;2024-01-27T06:45:14;98465.84;;;5.22;53.91
49515;BME280;35415;47.870;16.058;2024-01-27T06:47:42;98497.44;;;5.25;54.30
49515;BME280;35415;47.870;16.058;2024-01-27T06:50:09;98411.00;;;4.79;53.96
49515;BME280;35415;47.870;16.058;2024-01-27T06:52:39;98494.59;;;5.26;53.66
49515;BME280;35415;47.870;16.058;2024-01-27T06:55:07;98403.22;;;4.71;54.30
49515;BME280;35415;47.870;16.058;2024-01-27T06:57:36;98546.28;;;5.25;54.21
49515;BME280;35415;47.870;16.058;2024-01-27T07:00:08;98450.81;;;4.88;54.33
49515;BME280;35415;47.870;16.058;2024-01-27T07:02:41;98479.78;;;5.04;54.47
49515;BME280;35415;47.870;16.058;2024-01-27T07:05:09;98521.66;;;5.23;54.52
49515;BME280;35415;47.870;16.058;2024-01-27T07:07:38;98512.00;;;5.09;54.84
49515;BME280;35415;47.870;16.058;2024-01-27T07:10:07;98508.50;;;5.15;54.86
49515;BME280;35415;47.870;16.058;2024-01-27T07:12:35;98526.34;;;5.14;54.84
49515;BME280;35415;47.870;16.058;2024-01-27T07:15:02;98540.91;;;5.12;54.90
49515;BME280;35415;47.870;16.058;2024-01-27T07:17:30;98516.09;;;5.05;54.76
49515;BME280;35415;47.870;16.058;2024-01-27T07:19:59;98502.06;;;4.83;55.07
49515;BME280;35415;47.870;16.058;2024-01-27T07:22:27;98533.94;;;5.11;54.69
49515;BME280;35415;47.870;16.058;2024-01-27T07:24:54;98512.19;;;5.07;54.35
49515;BME280;35415;47.870;16.058;2024-01-27T07:27:22;98508.91;;;5.05;54.43
49515;BME280;35415;47.870;16.058;2024-01-27T07:29:51;98528.41;;;5.12;54.95
49515;BME280;35415;47.870;16.058;2024-01-27T07:32:18;98456.69;;;4.70;54.81
49515;BME280;35415;47.870;16.058;2024-01-27T07:34:47;98526.75;;;5.11;54.23
49515;BME280;35415;47.870;16.058;2024-01-27T07:37:16;98556.09;;;5.11;54.01
49515;BME280;35415;47.870;16.058;2024-01-27T07:39:45;98457.50;;;4.64;54.06
49515;BME280;35415;47.870;16.058;2024-01-27T07:42:12;98586.66;;;5.16;54.15
49515;BME280;35415;47.870;16.058;2024-01-27T07:44:40;98504.72;;;4.76;53.94
49515;BME280;35415;47.870;16.058;2024-01-27T07:47:08;98530.84;;;5.07;54.13
49515;BME280;35415;47.870;16.058;2024-01-27T07:49:35;98500.25;;;4.90;54.75
49515;BME280;35415;47.870;16.058;2024-01-27T07:52:04;98553.63;;;5.17;55.11
49515;BME280;35415;47.870;16.058;2024-01-27T07:54:33;98511.13;;;4.95;54.39
49515;BME280;35415;47.870;16.058;2024-01-27T07:57:05;98534.19;;;5.23;53.88
49515;BME280;35415;47.870;16.058;2024-01-27T07:59:32;98554.69;;;5.22;54.45
49515;BME280;35415;47.870;16.058;2024-01-27T08:02:00;98530.69;;;5.22;54.16
49515;BME280;35415;47.870;16.058;2024-01-27T08:04:28;98546.91;;;5.27;54.49
49515;BME280;35415;47.870;16.058;2024-01-27T08:06:56;98498.44;;;5.04;54.20
49515;BME280;35415;47.870;16.058;2024-01-27T08:09:23;98466.78;;;4.81;54.74
49515;BME280;35415;47.870;16.058;2024-01-27T08:11:52;98502.16;;;5.09;54.30
49515;BME280;35415;47.870;16.058;2024-01-27T08:14:20;98527.00;;;5.30;53.86
49515;BME280;35415;47.870;16.058;2024-01-27T08:16:48;98534.34;;;5.14;54.06
49515;BME280;35415;47.870;16.058;2024-01-27T08:19:15;98535.03;;;5.43;53.66
49515;BME280;35415;47.870;16.058;2024-01-27T08:21:46;98493.34;;;5.29;54.16
49515;BME280;35415;47.870;16.058;2024-01-27T08:24:14;98521.06;;;5.48;53.42
49515;BME280;35415;47.870;16.058;2024-01-27T08:26:41;98515.91;;;5.33;53.69
49515;BME280;35415;47.870;16.058;2024-01-27T08:29:10;98492.94;;;5.25;53.63
49515;BME280;35415;47.870;16.058;2024-01-27T08:31:37;98472.22;;;5.27;53.85
49515;BME280;35415;47.870;16.058;2024-01-27T08:34:05;98541.63;;;5.60;53.65
49515;BME280;35415;47.870;16.058;2024-01-27T08:36:34;98530.13;;;5.60;53.55
49515;BME280;35415;47.870;16.058;2024-01-27T08:39:03;98539.56;;;5.69;52.98
49515;BME280;35415;47.870;16.058;2024-01-27T08:41:33;98532.78;;;5.66;52.30
49515;BME280;35415;47.870;16.058;2024-01-27T08:44:00;98448.22;;;5.21;53.00
49515;BME280;35415;47.870;16.058;2024-01-27T08:46:29;98580.63;;;5.81;52.16
49515;BME280;35415;47.870;16.058;2024-01-27T08:48:56;98585.16;;;5.87;52.50
49515;BME280;35415;47.870;16.058;2024-01-27T08:51:24;98496.25;;;5.40;52.15
49515;BME280;35415;47.870;16.058;2024-01-27T08:53:51;98576.16;;;5.95;51.57
49515;BME280;35415;47.870;16.058;2024-01-27T08:56:19;98566.09;;;5.97;51.76
49515;BME280;35415;47.870;16.058;2024-01-27T08:58:47;98548.00;;;5.72;50.93
49515;BME280;35415;47.870;16.058;2024-01-27T09:01:15;98480.63;;;5.44;51.11
49515;BME280;35415;47.870;16.058;2024-01-27T09:03:44;98549.41;;;5.82;51.42
49515;BME280;35415;47.870;16.058;2024-01-27T09:06:12;98558.03;;;5.84;50.38
49515;BME280;35415;47.870;16.058;2024-01-27T09:08:39;98589.53;;;6.08;49.84
49515;BME280;35415;47.870;16.058;2024-01-27T09:11:07;98583.75;;;6.11;50.08
49515;BME280;35415;47.870;16.058;2024-01-27T09:13:35;98585.41;;;6.12;50.02
49515;BME280;35415;47.870;16.058;2024-01-27T09:16:02;98585.38;;;6.19;49.36
49515;BME280;35415;47.870;16.058;2024-01-27T09:18:30;98569.38;;;6.12;49.89
49515;BME280;35415;47.870;16.058;2024-01-27T09:20:59;98564.66;;;6.01;49.84
49515;BME280;35415;47.870;16.058;2024-01-27T09:23:27;98593.63;;;6.24;49.80
49515;BME280;35415;47.870;16.058;2024-01-27T09:25:55;98519.84;;;5.77;49.06
49515;BME280;35415;47.870;16.058;2024-01-27T09:28:23;98559.72;;;6.11;48.92
49515;BME280;35415;47.870;16.058;2024-01-27T09:30:50;98590.91;;;6.44;48.83
49515;BME280;35415;47.870;16.058;2024-01-27T09:33:18;98554.56;;;6.03;49.11
49515;BME280;35415;47.870;16.058;2024-01-27T09:35:48;98617.66;;;6.44;48.99
49515;BME280;35415;47.870;16.058;2024-01-27T09:38:18;98615.78;;;6.44;48.68
49515;BME280;35415;47.870;16.058;2024-01-27T09:40:45;98618.47;;;6.44;48.85
49515;BME280;35415;47.870;16.058;2024-01-27T09:43:13;98530.94;;;5.87;49.71
49515;BME280;35415;47.870;16.058;2024-01-27T09:45:42;98548.41;;;6.09;48.95
49515;BME280;35415;47.870;16.058;2024-01-27T09:48:12;98591.34;;;6.34;48.27
49515;BME280;35415;47.870;16.058;2024-01-27T09:50:40;98592.59;;;6.25;47.75
49515;BME280;35415;47.870;16.058;2024-01-27T09:53:08;98619.28;;;6.58;47.78
49515;BME280;35415;47.870;16.058;2024-01-27T09:55:56;98564.63;;;6.41;48.30
49515;BME280;35415;47.870;16.058;2024-01-27T09:58:25;98589.88;;;6.58;48.05
49515;BME280;35415;47.870;16.058;2024-01-27T10:00:55;98609.75;;;6.69;48.04
49515;BME280;35415;47.870;16.058;2024-01-27T10:03:23;98629.31;;;6.69;48.55
49515;BME280;35415;47.870;16.058;2024-01-27T10:05:52;98607.69;;;6.77;47.01
49515;BME280;35415;47.870;16.058;2024-01-27T10:08:21;98622.09;;;6.76;47.76
49515;BME280;35415;47.870;16.058;2024-01-27T10:10:50;98619.22;;;6.71;47.30
49515;BME280;35415;47.870;16.058;2024-01-27T10:13:22;98605.63;;;6.79;46.09
49515;BME280;35415;47.870;16.058;2024-01-27T10:16:10;98621.44;;;6.87;46.56
49515;BME280;35415;47.870;16.058;2024-01-27T10:18:38;98548.16;;;6.44;45.48
49515;BME280;35415;47.870;16.058;2024-01-27T10:21:12;98582.81;;;6.70;45.35
49515;BME280;35415;47.870;16.058;2024-01-27T10:23:40;98598.19;;;6.94;45.42
49515;BME280;35415;47.870;16.058;2024-01-27T10:26:09;98516.28;;;6.42;45.54
49515;BME280;35415;47.870;16.058;2024-01-27T10:28:38;98583.22;;;6.80;44.51
49515;BME280;35415;47.870;16.058;2024-01-27T10:31:10;98554.66;;;6.74;44.22
49515;BME280;35415;47.870;16.058;2024-01-27T10:33:37;98611.47;;;7.14;43.48
49515;BME280;35415;47.870;16.058;2024-01-27T10:36:05;98591.84;;;6.89;44.40
49515;BME280;35415;47.870;16.058;2024-01-27T10:41:08;98581.06;;;7.02;44.39
49515;BME280;35415;47.870;16.058;2024-01-27T10:43:39;98626.00;;;7.32;43.99
49515;BME280;35415;47.870;16.058;2024-01-27T10:46:08;98568.72;;;7.08;43.11
49515;BME280;35415;47.870;16.058;2024-01-27T10:48:37;98647.94;;;7.53;43.42
49515;BME280;35415;47.870;16.058;2024-01-27T10:51:08;98627.00;;;7.44;43.67
49515;BME280;35415;47.870;16.058;2024-01-27T10:53:36;98647.69;;;7.62;42.69
49515;BME280;35415;47.870;16.058;2024-01-27T10:56:05;98627.44;;;7.34;42.48
49515;BME280;35415;47.870;16.058;2024-01-27T10:58:35;98658.75;;;7.72;42.32
49515;BME280;35415;47.870;16.058;2024-01-27T11:01:09;98611.97;;;7.43;42.61
49515;BME280;35415;47.870;16.058;2024-01-27T11:03:38;98619.34;;;7.47;42.50
49515;BME280;35415;47.870;16.058;2024-01-27T11:06:06;98616.72;;;7.41;43.31
49515;BME280;35415;47.870;16.058;2024-01-27T11:08:34;98631.91;;;7.47;43.23
49515;BME280;35415;47.870;16.058;2024-01-27T11:11:03;98661.75;;;7.57;43.44
49515;BME280;35415;47.870;16.058;2024-01-27T11:13:32;98610.00;;;7.25;43.71
49515;BME280;35415;47.870;16.058;2024-01-27T11:16:00;98658.44;;;7.55;43.84
49515;BME280;35415;47.870;16.058;2024-01-27T11:18:29;98632.56;;;7.36;43.46
49515;BME280;35415;47.870;16.058;2024-01-27T11:20:58;98646.13;;;7.47;43.58
49515;BME280;35415;47.870;16.058;2024-01-27T11:23:32;98627.44;;;7.34;43.92
49515;BME280;35415;47.870;16.058;2024-01-27T11:26:04;98678.78;;;7.63;43.86
49515;BME280;35415;47.870;16.058;2024-01-27T11:28:32;98655.72;;;7.62;43.39
49515;BME280;35415;47.870;16.058;2024-01-27T11:31:03;98661.09;;;7.62;44.13
49515;BME280;35415;47.870;16.058;2024-01-27T11:33:32;98627.44;;;7.34;43.71
49515;BME280;35415;47.870;16.058;2024-01-27T11:36:00;98664.81;;;7.61;43.49
49515;BME280;35415;47.870;16.058;2024-01-27T11:38:30;98634.53;;;7.53;42.99
49515;BME280;35415;47.870;16.058;2024-01-27T11:40:59;98667.81;;;7.71;42.51
49515;BME280;35415;47.870;16.058;2024-01-27T11:43:27;98609.75;;;7.33;41.71
49515;BME280;35415;47.870;16.058;2024-01-27T11:45:55;98676.88;;;7.76;43.18
49515;BME280;35415;47.870;16.058;2024-01-27T11:48:23;98671.75;;;7.68;42.71
49515;BME280;35415;47.870;16.058;2024-01-27T11:51:05;98642.41;;;7.48;42.70
49515;BME280;35415;47.870;16.058;2024-01-27T11:53:34;98676.66;;;7.78;42.49
49515;BME280;35415;47.870;16.058;2024-01-27T11:56:01;98592.66;;;7.34;42.72
49515;BME280;35415;47.870;16.058;2024-01-27T11:58:29;98663.59;;;7.88;41.65
49515;BME280;35415;47.870;16.058;2024-01-27T12:00:57;98659.09;;;7.82;41.24
49515;BME280;35415;47.870;16.058;2024-01-27T12:03:25;98633.41;;;7.74;41.66
49515;BME280;35415;47.870;16.058;2024-01-27T12:05:53;98635.75;;;7.96;40.43
49515;BME280;35415;47.870;16.058;2024-01-27T12:08:22;98598.03;;;7.66;40.53
49515;BME280;35415;47.870;16.058;2024-01-27T12:10:51;98651.31;;;8.05;40.91
49515;BME280;35415;47.870;16.058;2024-01-27T12:13:18;98609.47;;;7.79;40.91
49515;BME280;35415;47.870;16.058;2024-01-27T12:15:46;98664.91;;;8.10;40.64
49515;BME280;35415;47.870;16.058;2024-01-27T12:18:14;98618.53;;;8.10;39.63
49515;BME280;35415;47.870;16.058;2024-01-27T12:20:42;98645.03;;;8.18;40.10
49515;BME280;35415;47.870;16.058;2024-01-27T12:23:10;98622.34;;;8.21;39.87
49515;BME280;35415;47.870;16.058;2024-01-27T12:25:39;98618.91;;;8.13;39.53
49515;BME280;35415;47.870;16.058;2024-01-27T12:28:07;98572.91;;;7.92;39.46
49515;BME280;35415;47.870;16.058;2024-01-27T12:30:36;98587.53;;;7.89;39.24
49515;BME280;35415;47.870;16.058;2024-01-27T12:33:09;98663.56;;;8.26;39.31
49515;BME280;35415;47.870;16.058;2024-01-27T12:35:39;98642.94;;;8.27;38.71
49515;BME280;35415;47.870;16.058;2024-01-27T12:38:07;98634.88;;;8.27;38.70
49515;BME280;35415;47.870;16.058;2024-01-27T12:40:34;98630.00;;;8.17;38.44
49515;BME280;35415;47.870;16.058;2024-01-27T12:43:03;98652.00;;;8.26;39.19
49515;BME280;35415;47.870;16.058;2024-01-27T12:45:31;98650.78;;;8.22;38.79
49515;BME280;35415;47.870;16.058;2024-01-27T12:48:00;98632.91;;;8.15;39.10
49515;BME280;35415;47.870;16.058;2024-01-27T12:50:30;98633.66;;;8.23;39.27
49515;BME280;35415;47.870;16.058;2024-01-27T12:52:58;98630.97;;;8.23;39.17
49515;BME280;35415;47.870;16.058;2024-01-27T12:55:25;98653.91;;;8.19;39.31
49515;BME280;35415;47.870;16.058;2024-01-27T12:57:53;98637.81;;;8.19;39.77
49515;BME280;35415;47.870;16.058;2024-01-27T13:00:22;98617.81;;;7.96;39.11
49515;BME280;35415;47.870;16.058;2024-01-27T13:02:50;98658.72;;;8.10;39.29
49515;BME280;35415;47.870;16.058;2024-01-27T13:05:17;98653.75;;;8.13;39.77
49515;BME280;35415;47.870;16.058;2024-01-27T13:07:46;98658.34;;;8.06;39.19